Time;durP1;ratioP1;P1;durP2;ratioP2;P2;SDS_P1;SDS_P2;PMS_P1;PMS_P2;Temp;Humidity;BMP_temperature;BMP_pressure;BME280_temperature;BME280_humidity;BME280_pressure;Samples;Min_cycle;Max_cycle;Signal;HPM_P1;HPM_P2
2020/07/29 00:01:31;;;;;;;1.59;1.49;;;;;;;22.35;64.44;100552.94;;;;-46
2020/07/29 00:04:31;;;;;;;1.67;1.57;;;;;;;22.35;64.43;100555.30;;;;-46
2020/07/29 00:07:30;;;;;;;2.45;1.62;;;;;;;22.34;64.41;100560.19;;;;-46
2020/07/29 00:10:30;;;;;;;1.65;1.51;;;;;;;22.34;64.43;100562.39;;;;-46
2020/07/29 00:13:30;;;;;;;1.71;1.59;;;;;;;22.34;64.49;100570.08;;;;-46
2020/07/29 00:16:30;;;;;;;1.51;1.40;;;;;;;22.34;64.42;100567.62;;;;-47
2020/07/29 00:19:31;;;;;;;1.58;1.48;;;;;;;22.33;64.44;100567.56;;;;-45
2020/07/29 00:22:30;;;;;;;1.87;1.65;;;;;;;22.33;64.44;100575.70;;;;-46
2020/07/29 00:25:30;;;;;;;1.86;1.51;;;;;;;22.33;64.48;100581.98;;;;-46
2020/07/29 00:28:30;;;;;;;1.72;1.61;;;;;;;22.32;64.44;100580.85;;;;-46
2020/07/29 00:31:30;;;;;;;1.59;1.49;;;;;;;22.32;64.41;100582.16;;;;-46
2020/07/29 00:34:30;;;;;;;1.60;1.50;;;;;;;22.32;64.42;100582.83;;;;-48
2020/07/29 00:37:30;;;;;;;1.69;1.59;;;;;;;22.31;64.44;100584.22;;;;-48
2020/07/29 00:40:30;;;;;;;2.52;1.67;;;;;;;22.31;64.42;100587.73;;;;-46
2020/07/29 00:43:30;;;;;;;1.72;1.50;;;;;;;22.30;64.38;100586.91;;;;-46
2020/07/29 00:46:31;;;;;;;2.37;1.58;;;;;;;22.31;64.43;100589.53;;;;-46
2020/07/29 00:49:30;;;;;;;1.65;1.50;;;;;;;22.30;64.38;100592.05;;;;-46
2020/07/29 00:52:30;;;;;;;1.51;1.39;;;;;;;22.30;64.44;100594.09;;;;-45
2020/07/29 00:55:30;;;;;;;1.60;1.50;;;;;;;22.29;64.40;100594.84;;;;-46
2020/07/29 00:58:30;;;;;;;1.50;1.40;;;;;;;22.29;64.44;100589.78;;;;-46
2020/07/29 01:01:30;;;;;;;1.81;1.41;;;;;;;22.28;64.39;100595.16;;;;-46
2020/07/29 01:04:30;;;;;;;2.04;1.30;;;;;;;22.28;64.36;100598.50;;;;-46
2020/07/29 01:07:30;;;;;;;1.51;1.40;;;;;;;22.28;64.41;100596.95;;;;-46
2020/07/29 01:10:30;;;;;;;1.48;1.38;;;;;;;22.29;64.46;100604.08;;;;-46
2020/07/29 01:13:30;;;;;;;1.88;1.45;;;;;;;22.28;64.38;100611.08;;;;-46
2020/07/29 01:16:30;;;;;;;1.60;1.50;;;;;;;22.28;64.41;100611.66;;;;-46
2020/07/29 01:19:30;;;;;;;1.50;1.40;;;;;;;22.27;64.39;100612.72;;;;-46
2020/07/29 01:22:30;;;;;;;1.40;1.30;;;;;;;22.28;64.41;100617.29;;;;-46
2020/07/29 01:25:30;;;;;;;1.82;1.60;;;;;;;22.27;64.35;100620.73;;;;-46
2020/07/29 01:28:30;;;;;;;1.54;1.44;;;;;;;22.26;64.40;100624.22;;;;-46
2020/07/29 01:31:30;;;;;;;2.12;1.50;;;;;;;22.26;64.36;100621.29;;;;-46
2020/07/29 01:34:30;;;;;;;1.90;1.50;;;;;;;22.25;64.39;100621.79;;;;-46
2020/07/29 01:37:30;;;;;;;1.78;1.38;;;;;;;22.26;64.34;100620.56;;;;-46
2020/07/29 01:40:30;;;;;;;1.49;1.39;;;;;;;22.25;64.40;100617.47;;;;-46
2020/07/29 01:43:30;;;;;;;1.53;1.43;;;;;;;22.26;64.32;100618.44;;;;-46
2020/07/29 01:46:30;;;;;;;2.59;1.60;;;;;;;22.25;64.34;100620.74;;;;-47
2020/07/29 01:49:30;;;;;;;1.50;1.40;;;;;;;22.25;64.36;100615.84;;;;-46
2020/07/29 01:52:30;;;;;;;1.61;1.41;;;;;;;22.24;64.37;100619.98;;;;-46
2020/07/29 01:55:31;;;;;;;1.42;1.32;;;;;;;22.24;64.31;100617.30;;;;-46
2020/07/29 01:58:30;;;;;;;1.60;1.50;;;;;;;22.23;64.33;100620.48;;;;-46
2020/07/29 02:01:30;;;;;;;1.55;1.45;;;;;;;22.24;64.30;100623.34;;;;-46
2020/07/29 02:04:30;;;;;;;1.49;1.39;;;;;;;22.24;64.27;100623.66;;;;-46
2020/07/29 02:07:30;;;;;;;1.59;1.49;;;;;;;22.23;64.27;100626.53;;;;-46
2020/07/29 02:10:30;;;;;;;1.79;1.50;;;;;;;22.23;64.31;100628.62;;;;-46
2020/07/29 02:13:30;;;;;;;2.21;1.50;;;;;;;22.23;64.28;100635.66;;;;-46
2020/07/29 02:16:30;;;;;;;1.55;1.45;;;;;;;22.23;64.27;100630.91;;;;-46
2020/07/29 02:19:30;;;;;;;1.57;1.47;;;;;;;22.23;64.28;100630.59;;;;-46
2020/07/29 02:22:30;;;;;;;1.47;1.37;;;;;;;22.22;64.23;100627.55;;;;-46
2020/07/29 02:25:30;;;;;;;1.58;1.47;;;;;;;22.22;64.26;100624.86;;;;-46
2020/07/29 02:28:30;;;;;;;1.53;1.43;;;;;;;22.22;64.29;100628.94;;;;-47
2020/07/29 02:31:30;;;;;;;1.62;1.48;;;;;;;22.22;64.27;100630.66;;;;-46
2020/07/29 02:34:30;;;;;;;1.50;1.40;;;;;;;22.21;64.28;100629.12;;;;-46
2020/07/29 02:37:30;;;;;;;1.45;1.35;;;;;;;22.21;64.29;100635.33;;;;-46
2020/07/29 02:40:30;;;;;;;1.50;1.40;;;;;;;22.21;64.23;100637.13;;;;-46
2020/07/29 02:43:30;;;;;;;1.52;1.39;;;;;;;22.21;64.28;100638.75;;;;-46
2020/07/29 02:46:30;;;;;;;2.41;1.46;;;;;;;22.20;64.27;100636.45;;;;-46
2020/07/29 02:49:30;;;;;;;1.75;1.40;;;;;;;22.19;64.25;100632.79;;;;-47
2020/07/29 02:52:30;;;;;;;1.49;1.39;;;;;;;22.19;64.29;100634.25;;;;-46
2020/07/29 02:55:30;;;;;;;1.41;1.31;;;;;;;22.19;64.25;100637.28;;;;-46
2020/07/29 02:58:30;;;;;;;1.41;1.31;;;;;;;22.19;64.17;100641.21;;;;-46
2020/07/29 03:01:30;;;;;;;1.50;1.40;;;;;;;22.19;64.27;100644.48;;;;-46
2020/07/29 03:04:30;;;;;;;1.63;1.25;;;;;;;22.19;64.16;100653.45;;;;-46
2020/07/29 03:07:30;;;;;;;1.39;1.29;;;;;;;22.18;64.23;100655.66;;;;-46
2020/07/29 03:10:30;;;;;;;2.16;1.50;;;;;;;22.18;64.23;100655.23;;;;-46
2020/07/29 03:13:30;;;;;;;1.40;1.30;;;;;;;22.18;64.21;100660.45;;;;-46
2020/07/29 03:16:30;;;;;;;1.50;1.40;;;;;;;22.18;64.21;100664.13;;;;-46
2020/07/29 03:19:30;;;;;;;1.49;1.39;;;;;;;22.17;64.18;100663.98;;;;-46
2020/07/29 03:22:30;;;;;;;1.50;1.40;;;;;;;22.17;64.25;100667.81;;;;-46
2020/07/29 03:25:30;;;;;;;1.58;1.48;;;;;;;22.17;64.23;100674.59;;;;-46
2020/07/29 03:28:30;;;;;;;1.61;1.51;;;;;;;22.17;64.20;100675.91;;;;-47
2020/07/29 03:31:30;;;;;;;1.47;1.37;;;;;;;22.17;64.23;100675.91;;;;-46
2020/07/29 03:34:30;;;;;;;1.55;1.45;;;;;;;22.17;64.21;100677.70;;;;-46
2020/07/29 03:37:30;;;;;;;1.43;1.33;;;;;;;22.17;64.19;100678.93;;;;-46
2020/07/29 03:40:30;;;;;;;1.57;1.47;;;;;;;22.16;64.15;100679.56;;;;-46
2020/07/29 03:43:30;;;;;;;1.57;1.47;;;;;;;22.16;64.19;100681.69;;;;-46
2020/07/29 03:46:30;;;;;;;1.47;1.37;;;;;;;22.16;64.18;100681.03;;;;-46
2020/07/29 03:49:30;;;;;;;1.41;1.31;;;;;;;22.16;64.15;100680.63;;;;-46
2020/07/29 03:52:30;;;;;;;1.61;1.50;;;;;;;22.16;64.18;100680.38;;;;-46
2020/07/29 03:55:30;;;;;;;1.46;1.36;;;;;;;22.14;64.14;100680.81;;;;-46
2020/07/29 03:58:30;;;;;;;1.61;1.51;;;;;;;22.14;64.15;100683.91;;;;-46
2020/07/29 04:01:30;;;;;;;1.41;1.31;;;;;;;22.14;64.13;100691.64;;;;-46
2020/07/29 04:04:30;;;;;;;1.46;1.36;;;;;;;22.14;64.08;100692.13;;;;-46
2020/07/29 04:07:30;;;;;;;1.43;1.33;;;;;;;22.13;64.12;100688.95;;;;-46
2020/07/29 04:10:30;;;;;;;1.56;1.46;;;;;;;22.13;64.21;100694.92;;;;-46
2020/07/29 04:13:30;;;;;;;1.40;1.30;;;;;;;22.13;64.14;100699.74;;;;-47
2020/07/29 04:16:30;;;;;;;1.49;1.39;;;;;;;22.13;64.15;100707.74;;;;-46
2020/07/29 04:19:30;;;;;;;1.50;1.40;;;;;;;22.13;64.14;100707.34;;;;-46
2020/07/29 04:22:30;;;;;;;1.39;1.30;;;;;;;22.12;64.14;100707.80;;;;-46
2020/07/29 04:25:30;;;;;;;1.67;1.57;;;;;;;22.12;64.19;100707.00;;;;-46
2020/07/29 04:28:30;;;;;;;1.52;1.42;;;;;;;22.12;64.09;100715.32;;;;-45
2020/07/29 04:31:30;;;;;;;1.50;1.40;;;;;;;22.12;64.13;100718.75;;;;-46
2020/07/29 04:34:30;;;;;;;1.50;1.40;;;;;;;22.11;64.15;100715.98;;;;-46
2020/07/29 04:37:31;;;;;;;1.65;1.40;;;;;;;22.11;64.18;100714.92;;;;-46
2020/07/29 04:40:30;;;;;;;1.50;1.40;;;;;;;22.11;64.18;100718.76;;;;-47
2020/07/29 04:43:30;;;;;;;1.66;1.30;;;;;;;22.11;64.21;100727.41;;;;-46
2020/07/29 04:46:30;;;;;;;1.60;1.50;;;;;;;22.11;64.15;100732.72;;;;-46
2020/07/29 04:49:30;;;;;;;1.63;1.40;;;;;;;22.10;64.15;100735.06;;;;-46
2020/07/29 04:52:30;;;;;;;1.51;1.41;;;;;;;22.10;64.11;100736.05;;;;-46
2020/07/29 04:55:30;;;;;;;1.53;1.31;;;;;;;22.09;64.15;100735.08;;;;-47
2020/07/29 04:58:30;;;;;;;1.67;1.45;;;;;;;22.10;64.17;100734.17;;;;-46
2020/07/29 05:01:30;;;;;;;1.53;1.43;;;;;;;22.09;64.12;100733.69;;;;-46
2020/07/29 05:04:30;;;;;;;1.76;1.50;;;;;;;22.09;64.17;100735.65;;;;-46
2020/07/29 05:07:30;;;;;;;1.85;1.40;;;;;;;22.09;64.13;100735.33;;;;-46
2020/07/29 05:10:30;;;;;;;1.60;1.50;;;;;;;22.09;64.12;100734.27;;;;-46
2020/07/29 05:13:30;;;;;;;1.49;1.39;;;;;;;22.09;64.10;100735.00;;;;-46
2020/07/29 05:16:30;;;;;;;1.90;1.47;;;;;;;22.08;64.13;100735.74;;;;-46
2020/07/29 05:19:30;;;;;;;1.61;1.51;;;;;;;22.08;64.20;100736.56;;;;-46
2020/07/29 05:22:30;;;;;;;1.65;1.55;;;;;;;22.08;64.07;100735.91;;;;-47
2020/07/29 05:25:30;;;;;;;1.70;1.60;;;;;;;22.08;64.09;100739.23;;;;-46
2020/07/29 05:28:30;;;;;;;1.82;1.68;;;;;;;22.08;64.11;100740.54;;;;-46
2020/07/29 05:31:30;;;;;;;1.86;1.71;;;;;;;22.08;64.11;100745.60;;;;-46
2020/07/29 05:34:30;;;;;;;1.60;1.50;;;;;;;22.07;64.10;100744.06;;;;-46
2020/07/29 05:37:30;;;;;;;1.69;1.59;;;;;;;22.07;64.15;100743.57;;;;-46
2020/07/29 05:40:30;;;;;;;1.62;1.50;;;;;;;22.07;64.13;100745.86;;;;-46
2020/07/29 05:43:30;;;;;;;1.61;1.50;;;;;;;22.07;64.09;100746.27;;;;-47
2020/07/29 05:46:30;;;;;;;1.77;1.67;;;;;;;22.06;64.02;100750.03;;;;-46
2020/07/29 05:49:30;;;;;;;1.66;1.56;;;;;;;22.06;64.13;100752.23;;;;-46
2020/07/29 05:52:30;;;;;;;1.81;1.63;;;;;;;22.06;64.10;100753.78;;;;-46
2020/07/29 05:55:30;;;;;;;1.95;1.67;;;;;;;22.05;64.03;100759.72;;;;-47
2020/07/29 05:58:30;;;;;;;1.60;1.50;;;;;;;22.06;64.08;100761.05;;;;-46
2020/07/29 06:01:30;;;;;;;1.65;1.55;;;;;;;22.06;64.09;100765.19;;;;-46
2020/07/29 06:04:30;;;;;;;2.33;1.67;;;;;;;22.06;64.11;100773.52;;;;-46
2020/07/29 06:07:30;;;;;;;2.04;1.57;;;;;;;22.06;64.11;100776.61;;;;-46
2020/07/29 06:10:30;;;;;;;1.65;1.55;;;;;;;22.05;64.08;100776.05;;;;-46
2020/07/29 06:13:30;;;;;;;1.70;1.60;;;;;;;22.05;64.09;100780.05;;;;-46
2020/07/29 06:16:30;;;;;;;1.60;1.50;;;;;;;22.05;64.11;100785.11;;;;-46
2020/07/29 06:19:30;;;;;;;2.56;1.63;;;;;;;22.05;64.08;100786.99;;;;-46
2020/07/29 06:22:30;;;;;;;1.87;1.68;;;;;;;22.05;64.08;100788.55;;;;-47
2020/07/29 06:25:30;;;;;;;1.65;1.55;;;;;;;22.05;64.17;100792.46;;;;-46
2020/07/29 06:28:31;;;;;;;1.82;1.66;;;;;;;22.04;64.10;100789.45;;;;-46
2020/07/29 06:31:30;;;;;;;2.91;1.69;;;;;;;22.05;64.10;100792.95;;;;-46
2020/07/29 06:34:30;;;;;;;2.15;1.57;;;;;;;22.04;64.05;100792.28;;;;-46
2020/07/29 06:37:30;;;;;;;1.70;1.59;;;;;;;22.04;64.08;100793.42;;;;-46
2020/07/29 06:40:30;;;;;;;2.24;1.80;;;;;;;22.04;64.07;100797.04;;;;-46
2020/07/29 06:43:30;;;;;;;1.71;1.60;;;;;;;22.04;64.09;100797.95;;;;-47
2020/07/29 06:46:30;;;;;;;2.78;1.72;;;;;;;22.04;64.09;100797.95;;;;-46
2020/07/29 06:49:30;;;;;;;2.18;1.63;;;;;;;22.04;64.16;100800.06;;;;-46
2020/07/29 06:52:31;;;;;;;1.89;1.63;;;;;;;22.04;64.03;100800.88;;;;-46
2020/07/29 06:55:30;;;;;;;1.71;1.61;;;;;;;22.04;64.07;100802.08;;;;-46
2020/07/29 06:58:30;;;;;;;2.68;1.61;;;;;;;22.02;62.93;100803.05;;;;-46
2020/07/29 07:01:30;;;;;;;4.39;2.55;;;;;;;21.97;57.51;100806.40;;;;-47
2020/07/29 07:04:30;;;;;;;5.44;2.49;;;;;;;21.88;56.05;100801.99;;;;-47
2020/07/29 07:07:30;;;;;;;3.75;2.41;;;;;;;21.84;55.64;100802.72;;;;-46
2020/07/29 07:10:30;;;;;;;6.84;2.35;;;;;;;21.77;55.67;100805.65;;;;-46
2020/07/29 07:13:30;;;;;;;4.83;2.42;;;;;;;21.72;56.18;100809.13;;;;-46
2020/07/29 07:16:30;;;;;;;5.03;2.38;;;;;;;21.66;56.06;100812.77;;;;-46
2020/07/29 07:19:30;;;;;;;7.19;2.39;;;;;;;21.65;56.45;100811.81;;;;-46
2020/07/29 07:22:30;;;;;;;3.87;2.36;;;;;;;21.65;57.04;100814.67;;;;-46
2020/07/29 07:25:30;;;;;;;5.30;2.46;;;;;;;21.62;57.33;100820.05;;;;-46
2020/07/29 07:28:30;;;;;;;6.20;2.28;;;;;;;21.64;57.09;100820.61;;;;-46
2020/07/29 07:31:30;;;;;;;6.02;2.42;;;;;;;21.65;56.43;100820.62;;;;-47
2020/07/29 07:34:30;;;;;;;7.28;2.48;;;;;;;21.65;56.10;100823.39;;;;-50
2020/07/29 07:37:30;;;;;;;5.79;2.27;;;;;;;21.65;55.13;100823.23;;;;-50
2020/07/29 07:40:30;;;;;;;5.34;2.04;;;;;;;21.64;54.45;100826.09;;;;-47
2020/07/29 07:43:30;;;;;;;8.02;2.23;;;;;;;21.66;54.77;100821.75;;;;-56
2020/07/29 07:46:30;;;;;;;6.03;2.10;;;;;;;21.65;53.91;100821.52;;;;-59
2020/07/29 07:49:30;;;;;;;5.15;2.30;;;;;;;21.65;54.73;100819.16;;;;-52
2020/07/29 07:56:50;;;;;;;3.99;2.17;;;;;;;21.67;55.30;100823.56;;;;-48
2020/07/29 07:59:50;;;;;;;4.09;2.23;;;;;;;21.70;54.74;100821.68;;;;-58
2020/07/29 08:02:51;;;;;;;7.69;2.40;;;;;;;21.71;54.58;100825.86;;;;-53
2020/07/29 08:05:50;;;;;;;7.59;2.27;;;;;;;21.73;54.64;100820.97;;;;-50
2020/07/29 08:08:51;;;;;;;4.28;2.12;;;;;;;21.76;54.40;100818.59;;;;-49
2020/07/29 08:11:50;;;;;;;6.25;2.41;;;;;;;21.79;54.94;100821.15;;;;-44
2020/07/29 08:14:50;;;;;;;8.38;2.40;;;;;;;21.82;55.49;100818.13;;;;-61
2020/07/29 08:17:50;;;;;;;8.84;2.34;;;;;;;21.85;55.86;100821.06;;;;-54
2020/07/29 08:20:50;;;;;;;6.22;2.15;;;;;;;21.87;56.20;100823.60;;;;-50
2020/07/29 08:23:50;;;;;;;5.64;2.11;;;;;;;21.89;56.67;100828.02;;;;-48
2020/07/29 08:26:50;;;;;;;7.18;2.13;;;;;;;21.90;56.97;100830.88;;;;-51
2020/07/29 08:29:50;;;;;;;4.43;2.14;;;;;;;21.91;57.44;100834.53;;;;-51
2020/07/29 08:32:50;;;;;;;5.41;2.14;;;;;;;21.92;57.59;100831.95;;;;-51
2020/07/29 08:35:50;;;;;;;5.17;2.01;;;;;;;21.92;57.71;100834.06;;;;-51
2020/07/29 08:38:50;;;;;;;5.88;2.41;;;;;;;21.93;57.87;100834.47;;;;-51
2020/07/29 08:41:51;;;;;;;5.60;2.00;;;;;;;21.93;58.06;100823.61;;;;-52
2020/07/29 08:44:51;;;;;;;5.19;2.07;;;;;;;21.94;58.08;100827.95;;;;-51
2020/07/29 08:47:50;;;;;;;6.38;2.34;;;;;;;21.96;58.13;100827.39;;;;-47
2020/07/29 08:50:50;;;;;;;5.13;2.03;;;;;;;21.98;58.14;100822.50;;;;-51
2020/07/29 08:53:50;;;;;;;4.09;1.94;;;;;;;21.98;58.22;100835.06;;;;-52
2020/07/29 08:56:50;;;;;;;5.10;2.06;;;;;;;21.98;58.66;100819.87;;;;-53
2020/07/29 08:59:50;;;;;;;3.70;1.93;;;;;;;21.99;58.85;100818.31;;;;-52
2020/07/29 09:02:50;;;;;;;5.39;1.81;;;;;;;21.99;58.95;100814.97;;;;-53
2020/07/29 09:05:50;;;;;;;5.39;2.15;;;;;;;22.00;58.92;100814.42;;;;-52
2020/07/29 09:08:50;;;;;;;4.13;2.03;;;;;;;22.00;58.96;100808.62;;;;-54
2020/07/29 09:11:50;;;;;;;6.32;2.26;;;;;;;22.00;58.99;100810.25;;;;-51
2020/07/29 09:14:51;;;;;;;8.67;2.12;;;;;;;22.02;59.04;100809.12;;;;-47
2020/07/29 09:17:51;;;;;;;7.35;2.01;;;;;;;22.05;59.02;100813.77;;;;-49
2020/07/29 09:20:51;;;;;;;4.49;2.01;;;;;;;22.05;59.13;100810.33;;;;-58
2020/07/29 09:23:50;;;;;;;7.51;2.01;;;;;;;22.05;59.29;100804.38;;;;-57
2020/07/29 09:26:50;;;;;;;4.29;1.84;;;;;;;22.05;59.33;100805.44;;;;-56
2020/07/29 09:29:50;;;;;;;3.63;1.97;;;;;;;22.05;59.40;100803.23;;;;-56
2020/07/29 09:32:50;;;;;;;7.15;2.01;;;;;;;22.04;59.39;100802.59;;;;-57
2020/07/29 09:35:50;;;;;;;3.46;1.83;;;;;;;22.05;59.49;100799.23;;;;-55
2020/07/29 09:38:50;;;;;;;4.39;1.98;;;;;;;22.05;59.45;100795.14;;;;-57
2020/07/29 09:41:50;;;;;;;3.25;1.79;;;;;;;22.06;59.44;100796.48;;;;-57
2020/07/29 09:44:50;;;;;;;5.88;2.02;;;;;;;22.06;59.48;100791.91;;;;-57
2020/07/29 09:47:50;;;;;;;4.15;1.93;;;;;;;22.06;59.51;100787.17;;;;-58
2020/07/29 09:50:50;;;;;;;4.19;1.95;;;;;;;22.06;59.57;100788.70;;;;-58
2020/07/29 09:53:51;;;;;;;7.21;2.01;;;;;;;22.06;59.65;100788.30;;;;-56
2020/07/29 09:56:50;;;;;;;3.90;1.70;;;;;;;22.06;59.63;100784.15;;;;-58
2020/07/29 09:59:50;;;;;;;2.91;1.97;;;;;;;22.06;59.65;100786.11;;;;-55
2020/07/29 10:02:50;;;;;;;3.43;1.85;;;;;;;22.07;59.68;100786.27;;;;-56
2020/07/29 10:05:50;;;;;;;5.31;1.90;;;;;;;22.06;59.64;100785.62;;;;-58
2020/07/29 10:08:50;;;;;;;3.24;1.89;;;;;;;22.06;59.66;100783.57;;;;-57
2020/07/29 10:11:50;;;;;;;6.39;1.95;;;;;;;22.07;59.75;100781.61;;;;-57
2020/07/29 10:14:50;;;;;;;3.36;1.77;;;;;;;22.08;59.77;100773.95;;;;-56
2020/07/29 10:17:50;;;;;;;3.46;1.74;;;;;;;22.08;59.86;100775.14;;;;-56
2020/07/29 10:20:50;;;;;;;2.59;1.75;;;;;;;22.08;59.85;100776.56;;;;-56
2020/07/29 10:23:50;;;;;;;3.53;1.89;;;;;;;22.07;59.90;100768.21;;;;-56
2020/07/29 10:26:50;;;;;;;4.41;1.89;;;;;;;22.08;59.86;100765.79;;;;-58
2020/07/29 10:29:50;;;;;;;3.71;1.91;;;;;;;22.08;59.94;100766.27;;;;-56
2020/07/29 10:32:50;;;;;;;4.92;1.80;;;;;;;22.08;59.94;100766.52;;;;-56
2020/07/29 10:35:50;;;;;;;3.15;1.77;;;;;;;22.09;59.98;100764.22;;;;-56
2020/07/29 10:38:50;;;;;;;3.03;1.80;;;;;;;22.09;59.98;100764.88;;;;-57
2020/07/29 10:41:50;;;;;;;3.15;1.87;;;;;;;22.09;59.97;100765.52;;;;-58
2020/07/29 10:44:50;;;;;;;3.43;1.95;;;;;;;22.08;59.98;100763.33;;;;-56
2020/07/29 10:47:50;;;;;;;1.91;1.60;;;;;;;22.09;60.04;100767.08;;;;-57
2020/07/29 10:50:50;;;;;;;2.49;1.77;;;;;;;22.09;60.04;100763.73;;;;-58
2020/07/29 10:53:50;;;;;;;3.64;1.73;;;;;;;22.10;60.04;100768.95;;;;-57
2020/07/29 10:56:50;;;;;;;1.99;1.72;;;;;;;22.10;60.05;100770.09;;;;-58
2020/07/29 10:59:51;;;;;;;2.33;1.63;;;;;;;22.09;60.14;100769.36;;;;-57
2020/07/29 11:02:50;;;;;;;1.83;1.58;;;;;;;22.10;60.08;100767.25;;;;-57
2020/07/29 11:05:50;;;;;;;3.15;1.90;;;;;;;22.10;60.14;100768.31;;;;-56
2020/07/29 11:08:50;;;;;;;2.84;1.68;;;;;;;22.10;60.12;100764.12;;;;-56
2020/07/29 11:11:50;;;;;;;2.41;1.72;;;;;;;22.10;60.08;100763.66;;;;-57
2020/07/29 11:14:50;;;;;;;2.37;1.79;;;;;;;22.11;60.15;100764.55;;;;-57
2020/07/29 11:17:50;;;;;;;1.75;1.58;;;;;;;22.11;60.22;100755.73;;;;-57
2020/07/29 11:20:50;;;;;;;2.39;1.72;;;;;;;22.10;60.22;100761.30;;;;-57
2020/07/29 11:23:50;;;;;;;2.01;1.70;;;;;;;22.11;60.22;100750.02;;;;-56
2020/07/29 11:26:50;;;;;;;1.89;1.65;;;;;;;22.11;60.20;100749.86;;;;-56
2020/07/29 11:29:50;;;;;;;1.99;1.71;;;;;;;22.11;60.24;100744.63;;;;-57
2020/07/29 11:32:50;;;;;;;2.61;1.60;;;;;;;22.12;60.25;100744.05;;;;-56
2020/07/29 11:35:50;;;;;;;2.23;1.61;;;;;;;22.12;60.22;100737.85;;;;-57
2020/07/29 11:38:50;;;;;;;2.16;1.75;;;;;;;22.12;60.24;100743.66;;;;-57
2020/07/29 11:41:51;;;;;;;2.43;1.77;;;;;;;22.12;60.30;100739.72;;;;-56
2020/07/29 11:44:51;;;;;;;3.04;1.70;;;;;;;22.12;60.29;100730.67;;;;-56
2020/07/29 11:47:50;;;;;;;2.05;1.67;;;;;;;22.11;60.28;100727.48;;;;-56
2020/07/29 11:50:50;;;;;;;1.94;1.69;;;;;;;22.11;60.34;100717.37;;;;-56
2020/07/29 11:53:50;;;;;;;3.83;1.82;;;;;;;22.12;60.34;100714.50;;;;-57
2020/07/29 11:56:50;;;;;;;2.23;1.62;;;;;;;22.11;60.37;100709.94;;;;-56
2020/07/29 11:59:50;;;;;;;2.87;1.89;;;;;;;22.12;60.35;100704.79;;;;-58
2020/07/29 12:02:50;;;;;;;3.13;1.78;;;;;;;22.12;60.34;100709.59;;;;-57
2020/07/29 12:05:50;;;;;;;2.91;1.88;;;;;;;22.12;60.41;100706.77;;;;-57
2020/07/29 12:08:50;;;;;;;1.89;1.62;;;;;;;22.13;60.41;100706.44;;;;-57
2020/07/29 12:11:50;;;;;;;2.11;1.71;;;;;;;22.12;60.35;100705.95;;;;-57
2020/07/29 12:14:50;;;;;;;2.09;1.62;;;;;;;22.13;60.45;100707.34;;;;-58
2020/07/29 12:17:50;;;;;;;2.08;1.73;;;;;;;22.12;60.38;100701.77;;;;-58
2020/07/29 12:20:50;;;;;;;1.71;1.57;;;;;;;22.13;60.43;100697.62;;;;-57
2020/07/29 12:23:50;;;;;;;1.70;1.60;;;;;;;22.13;60.42;100699.41;;;;-56
2020/07/29 12:26:50;;;;;;;2.72;1.70;;;;;;;22.13;60.45;100696.23;;;;-58
2020/07/29 12:29:50;;;;;;;2.18;1.71;;;;;;;22.13;60.41;100692.22;;;;-56
2020/07/29 12:32:50;;;;;;;2.86;1.75;;;;;;;22.13;60.46;100692.07;;;;-56
2020/07/29 12:35:50;;;;;;;1.97;1.71;;;;;;;22.13;60.47;100686.59;;;;-56
2020/07/29 12:38:50;;;;;;;1.77;1.65;;;;;;;22.14;60.49;100677.45;;;;-57
2020/07/29 12:41:50;;;;;;;1.70;1.58;;;;;;;22.13;60.47;100672.88;;;;-57
2020/07/29 12:44:50;;;;;;;3.04;1.64;;;;;;;22.13;60.49;100673.12;;;;-56
2020/07/29 12:47:50;;;;;;;2.16;1.67;;;;;;;22.13;60.45;100669.79;;;;-57
2020/07/29 12:50:50;;;;;;;2.37;1.60;;;;;;;22.13;60.48;100671.09;;;;-57
2020/07/29 12:53:50;;;;;;;2.40;1.70;;;;;;;22.14;60.53;100676.22;;;;-57
2020/07/29 12:56:50;;;;;;;1.84;1.60;;;;;;;22.14;60.52;100673.61;;;;-58
2020/07/29 12:59:50;;;;;;;1.71;1.61;;;;;;;22.14;60.55;100669.69;;;;-57
2020/07/29 13:02:50;;;;;;;1.77;1.51;;;;;;;22.14;60.48;100666.02;;;;-56
2020/07/29 13:05:50;;;;;;;1.79;1.59;;;;;;;22.15;60.54;100662.68;;;;-57
2020/07/29 13:08:50;;;;;;;1.62;1.52;;;;;;;22.15;60.53;100662.27;;;;-55
2020/07/29 13:11:50;;;;;;;3.07;1.61;;;;;;;22.15;60.65;100657.28;;;;-50
2020/07/29 13:14:50;;;;;;;2.29;1.68;;;;;;;22.17;60.42;100655.98;;;;-48
2020/07/29 13:17:50;;;;;;;2.32;1.64;;;;;;;22.19;60.42;100655.09;;;;-51
2020/07/29 13:20:50;;;;;;;2.91;1.70;;;;;;;22.20;60.34;100653.44;;;;-51
2020/07/29 13:23:50;;;;;;;2.65;1.70;;;;;;;22.20;60.42;100652.05;;;;-60
2020/07/29 13:26:50;;;;;;;3.04;1.79;;;;;;;22.20;60.60;100648.97;;;;-48
2020/07/29 13:29:50;;;;;;;2.75;1.64;;;;;;;22.21;60.70;100647.41;;;;-50
2020/07/29 13:32:50;;;;;;;2.42;1.61;;;;;;;22.21;60.77;100648.05;;;;-48
2020/07/29 13:35:50;;;;;;;2.27;1.70;;;;;;;22.21;60.82;100646.76;;;;-49
2020/07/29 13:38:50;;;;;;;2.59;1.75;;;;;;;22.21;60.89;100643.41;;;;-49
2020/07/29 13:41:51;;;;;;;3.88;1.71;;;;;;;22.21;60.83;100640.30;;;;-49
2020/07/29 13:44:50;;;;;;;1.91;1.67;;;;;;;22.21;60.76;100628.80;;;;-48
2020/07/29 13:47:50;;;;;;;3.55;1.70;;;;;;;22.20;60.91;100634.11;;;;-48
2020/07/29 13:50:50;;;;;;;3.11;1.67;;;;;;;22.21;60.91;100637.61;;;;-49
2020/07/29 13:53:50;;;;;;;3.47;1.62;;;;;;;22.21;60.90;100629.45;;;;-50
2020/07/29 13:56:50;;;;;;;1.82;1.60;;;;;;;22.21;60.85;100626.84;;;;-49
2020/07/29 13:59:50;;;;;;;2.22;1.65;;;;;;;22.21;60.93;100624.38;;;;-48
2020/07/29 14:02:50;;;;;;;2.52;1.57;;;;;;;22.20;60.94;100620.72;;;;-48
2020/07/29 14:05:50;;;;;;;2.09;1.68;;;;;;;22.21;60.89;100622.26;;;;-49
2020/07/29 14:08:50;;;;;;;2.11;1.61;;;;;;;22.21;60.96;100617.36;;;;-49
2020/07/29 14:11:50;;;;;;;2.24;1.61;;;;;;;22.21;60.91;100617.03;;;;-48
2020/07/29 14:14:50;;;;;;;3.15;1.65;;;;;;;22.22;60.96;100614.33;;;;-49
2020/07/29 14:17:50;;;;;;;3.15;1.50;;;;;;;22.21;60.97;100604.95;;;;-49
2020/07/29 14:20:50;;;;;;;2.07;1.50;;;;;;;22.22;60.87;100604.86;;;;-48
2020/07/29 14:23:50;;;;;;;1.89;1.62;;;;;;;22.22;60.98;100599.39;;;;-49
2020/07/29 14:26:50;;;;;;;2.01;1.59;;;;;;;22.22;60.96;100600.36;;;;-50
2020/07/29 14:29:50;;;;;;;1.59;1.49;;;;;;;22.21;60.94;100600.55;;;;-48
2020/07/29 14:32:50;;;;;;;2.30;1.50;;;;;;;22.22;60.97;100604.45;;;;-48
2020/07/29 14:35:50;;;;;;;1.95;1.60;;;;;;;22.22;60.98;100594.17;;;;-49
2020/07/29 14:38:50;;;;;;;1.92;1.47;;;;;;;22.22;60.98;100592.94;;;;-50
2020/07/29 14:41:50;;;;;;;5.32;1.87;;;;;;;22.22;61.07;100594.48;;;;-51
2020/07/29 14:44:50;;;;;;;4.91;1.75;;;;;;;22.24;61.13;100590.77;;;;-58
2020/07/29 14:47:50;;;;;;;7.16;1.95;;;;;;;22.27;61.11;100589.06;;;;-49
2020/07/29 14:50:50;;;;;;;9.02;2.03;;;;;;;22.31;61.43;100591.57;;;;-51
2020/07/29 14:53:50;;;;;;;10.27;2.06;;;;;;;22.33;60.94;100589.12;;;;-51
2020/07/29 14:56:50;;;;;;;2.93;1.64;;;;;;;22.34;60.76;100584.70;;;;-48
2020/07/29 14:59:50;;;;;;;6.65;1.88;;;;;;;22.36;60.77;100583.94;;;;-49
2020/07/29 15:02:50;;;;;;;7.29;1.97;;;;;;;22.39;60.90;100581.56;;;;-48
2020/07/29 15:05:50;;;;;;;9.41;2.04;;;;;;;22.40;61.05;100580.83;;;;-46
2020/07/29 15:08:50;;;;;;;10.05;2.24;;;;;;;22.42;61.15;100579.44;;;;-58
2020/07/29 15:11:50;;;;;;;5.01;2.07;;;;;;;22.43;61.08;100576.81;;;;-57
2020/07/29 15:14:50;;;;;;;7.89;1.85;;;;;;;22.45;61.26;100576.72;;;;-52
2020/07/29 15:17:50;;;;;;;7.83;1.91;;;;;;;22.46;61.27;100572.41;;;;-47
2020/07/29 15:20:50;;;;;;;13.35;2.04;;;;;;;22.46;61.43;100567.98;;;;-48
2020/07/29 15:23:51;;;;;;;7.83;2.27;;;;;;;22.47;61.43;100566.66;;;;-52
2020/07/29 15:26:51;;;;;;;5.98;1.95;;;;;;;22.47;61.49;100569.52;;;;-51
2020/07/29 15:29:50;;;;;;;6.67;1.87;;;;;;;22.47;61.56;100563.42;;;;-48
2020/07/29 15:32:51;;;;;;;5.56;1.83;;;;;;;22.48;61.57;100558.34;;;;-48
2020/07/29 15:35:50;;;;;;;6.09;1.92;;;;;;;22.49;61.65;100557.42;;;;-51
2020/07/29 15:38:50;;;;;;;5.73;1.75;;;;;;;22.50;61.65;100551.23;;;;-46
2020/07/29 15:41:50;;;;;;;8.71;1.72;;;;;;;22.50;61.66;100553.92;;;;-55
2020/07/29 15:44:50;;;;;;;5.31;1.86;;;;;;;22.51;61.62;100556.92;;;;-53
2020/07/29 15:47:50;;;;;;;11.20;2.07;;;;;;;22.52;61.73;100553.42;;;;-45
2020/07/29 15:50:50;;;;;;;7.71;1.82;;;;;;;22.53;61.65;100553.08;;;;-47
2020/07/29 15:53:50;;;;;;;5.36;1.79;;;;;;;22.54;61.66;100548.36;;;;-52
2020/07/29 15:56:50;;;;;;;8.81;2.09;;;;;;;22.54;61.72;100548.84;;;;-58
2020/07/29 15:59:50;;;;;;;4.47;1.68;;;;;;;22.55;61.70;100552.67;;;;-57
2020/07/29 16:02:50;;;;;;;6.94;1.81;;;;;;;22.56;61.70;100549.47;;;;-52
2020/07/29 16:05:50;;;;;;;5.12;1.72;;;;;;;22.56;61.69;100550.63;;;;-51
2020/07/29 16:08:50;;;;;;;8.21;1.92;;;;;;;22.57;61.77;100554.05;;;;-50
2020/07/29 16:11:50;;;;;;;4.66;1.67;;;;;;;22.58;61.77;100549.95;;;;-47
2020/07/29 16:14:51;;;;;;;6.42;1.80;;;;;;;22.58;61.75;100542.44;;;;-57
2020/07/29 16:17:50;;;;;;;8.58;2.05;;;;;;;22.59;61.67;100546.03;;;;-45
2020/07/29 16:20:50;;;;;;;8.53;2.09;;;;;;;22.60;61.16;100548.95;;;;-47
2020/07/29 16:24:50;;;;;;;13.78;2.28;;;;;;;22.60;61.27;100542.86;;;;-42
2020/07/29 16:27:50;;;;;;;19.45;2.38;;;;;;;22.59;61.03;100542.77;;;;-52
2020/07/29 16:30:50;;;;;;;12.21;2.43;;;;;;;22.58;61.09;100541.47;;;;-55
2020/07/29 16:33:50;;;;;;;10.70;2.18;;;;;;;22.59;60.89;100537.87;;;;-48
2020/07/29 16:36:50;;;;;;;7.95;2.07;;;;;;;22.60;60.96;100541.78;;;;-47
2020/07/29 16:39:50;;;;;;;6.17;2.00;;;;;;;22.60;60.91;100542.52;;;;-57
2020/07/29 16:42:50;;;;;;;8.93;1.98;;;;;;;22.61;60.95;100540.62;;;;-50
2020/07/29 16:45:50;;;;;;;8.39;2.17;;;;;;;22.62;60.92;100540.21;;;;-51